sensor_id;sensor_type;location;lat;lon;timestamp;temperature;humidity
53876;DHT22;39789;53.216;5.624;2023-11-21T00:00:55;10.40;99.90
53876;DHT22;39789;53.216;5.624;2023-11-21T00:03:20;10.40;99.90
53876;DHT22;39789;53.216;5.624;2023-11-21T00:05:48;10.80;99.90
53876;DHT22;39789;53.216;5.624;2023-11-21T00:08:14;10.30;99.90
53876;DHT22;39789;53.216;5.624;2023-11-21T00:10:40;10.40;99.90
53876;DHT22;39789;53.216;5.624;2023-11-21T00:13:05;10.40;99.90
53876;DHT22;39789;53.216;5.624;2023-11-21T00:15:31;11.20;99.90
53876;DHT22;39789;53.216;5.624;2023-11-21T00:17:56;10.40;99.90
53876;DHT22;39789;53.216;5.624;2023-11-21T00:20:22;10.30;99.90
53876;DHT22;39789;53.216;5.624;2023-11-21T00:22:48;10.30;99.90
53876;DHT22;39789;53.216;5.624;2023-11-21T00:25:14;10.30;99.90
53876;DHT22;39789;53.216;5.624;2023-11-21T00:27:41;10.30;99.90
53876;DHT22;39789;53.216;5.624;2023-11-21T00:30:07;10.40;99.90
53876;DHT22;39789;53.216;5.624;2023-11-21T00:32:35;10.40;99.90
53876;DHT22;39789;53.216;5.624;2023-11-21T00:35:01;10.40;99.90
53876;DHT22;39789;53.216;5.624;2023-11-21T00:37:27;10.40;99.90
53876;DHT22;39789;53.216;5.624;2023-11-21T00:39:53;10.40;99.90
53876;DHT22;39789;53.216;5.624;2023-11-21T00:42:18;10.40;99.90
53876;DHT22;39789;53.216;5.624;2023-11-21T00:44:44;12.00;99.90
53876;DHT22;39789;53.216;5.624;2023-11-21T00:47:10;10.40;99.90
53876;DHT22;39789;53.216;5.624;2023-11-21T00:49:35;10.50;99.90
53876;DHT22;39789;53.216;5.624;2023-11-21T00:52:01;10.80;99.90
53876;DHT22;39789;53.216;5.624;2023-11-21T00:54:27;10.50;99.90
53876;DHT22;39789;53.216;5.624;2023-11-21T00:56:53;10.50;99.90
53876;DHT22;39789;53.216;5.624;2023-11-21T00:59:18;10.50;99.90
53876;DHT22;39789;53.216;5.624;2023-11-21T01:01:44;10.60;99.90
53876;DHT22;39789;53.216;5.624;2023-11-21T01:04:10;10.60;99.90
53876;DHT22;39789;53.216;5.624;2023-11-21T01:06:36;10.50;99.90
53876;DHT22;39789;53.216;5.624;2023-11-21T01:09:02;10.80;99.90
53876;DHT22;39789;53.216;5.624;2023-11-21T01:11:37;12.30;99.90
53876;DHT22;39789;53.216;5.624;2023-11-21T01:14:06;10.60;99.90
53876;DHT22;39789;53.216;5.624;2023-11-21T01:16:34;10.60;99.90
53876;DHT22;39789;53.216;5.624;2023-11-21T01:19:00;10.60;99.90
53876;DHT22;39789;53.216;5.624;2023-11-21T01:21:26;10.70;99.90
53876;DHT22;39789;53.216;5.624;2023-11-21T01:23:53;10.70;99.90
53876;DHT22;39789;53.216;5.624;2023-11-21T01:26:21;12.00;99.90
53876;DHT22;39789;53.216;5.624;2023-11-21T01:28:47;10.70;99.90
53876;DHT22;39789;53.216;5.624;2023-11-21T01:31:15;10.70;99.90
53876;DHT22;39789;53.216;5.624;2023-11-21T01:33:41;10.70;99.90
53876;DHT22;39789;53.216;5.624;2023-11-21T01:36:07;10.80;99.90
53876;DHT22;39789;53.216;5.624;2023-11-21T01:38:32;10.80;99.90
53876;DHT22;39789;53.216;5.624;2023-11-21T01:40:58;10.80;99.90
53876;DHT22;39789;53.216;5.624;2023-11-21T01:43:26;11.80;99.90
53876;DHT22;39789;53.216;5.624;2023-11-21T01:45:54;10.80;99.90
53876;DHT22;39789;53.216;5.624;2023-11-21T01:48:22;10.80;99.90
53876;DHT22;39789;53.216;5.624;2023-11-21T01:50:48;10.80;99.90
53876;DHT22;39789;53.216;5.624;2023-11-21T01:53:14;10.80;99.90
53876;DHT22;39789;53.216;5.624;2023-11-21T01:55:41;10.80;99.90
53876;DHT22;39789;53.216;5.624;2023-11-21T01:58:07;10.30;99.90
53876;DHT22;39789;53.216;5.624;2023-11-21T02:00:33;10.80;99.90
53876;DHT22;39789;53.216;5.624;2023-11-21T02:02:59;10.80;99.90
53876;DHT22;39789;53.216;5.624;2023-11-21T02:05:25;11.90;99.90
53876;DHT22;39789;53.216;5.624;2023-11-21T02:07:51;10.70;99.90
53876;DHT22;39789;53.216;5.624;2023-11-21T02:10:18;10.80;99.90
53876;DHT22;39789;53.216;5.624;2023-11-21T02:12:49;10.70;99.90
53876;DHT22;39789;53.216;5.624;2023-11-21T02:15:18;12.40;99.90
53876;DHT22;39789;53.216;5.624;2023-11-21T02:17:47;10.60;99.90
53876;DHT22;39789;53.216;5.624;2023-11-21T02:20:17;10.60;99.90
53876;DHT22;39789;53.216;5.624;2023-11-21T02:22:48;10.70;99.90
53876;DHT22;39789;53.216;5.624;2023-11-21T02:25:14;10.60;99.90
53876;DHT22;39789;53.216;5.624;2023-11-21T02:27:39;10.70;99.90
53876;DHT22;39789;53.216;5.624;2023-11-21T02:30:05;10.60;99.90
53876;DHT22;39789;53.216;5.624;2023-11-21T02:32:33;10.60;99.90
53876;DHT22;39789;53.216;5.624;2023-11-21T02:34:59;10.60;99.90
53876;DHT22;39789;53.216;5.624;2023-11-21T02:37:27;10.50;99.90
53876;DHT22;39789;53.216;5.624;2023-11-21T02:39:52;10.50;99.90
53876;DHT22;39789;53.216;5.624;2023-11-21T02:42:18;10.60;99.90
53876;DHT22;39789;53.216;5.624;2023-11-21T02:44:44;10.60;99.90
53876;DHT22;39789;53.216;5.624;2023-11-21T02:47:10;10.50;99.90
53876;DHT22;39789;53.216;5.624;2023-11-21T02:49:35;10.60;99.90
53876;DHT22;39789;53.216;5.624;2023-11-21T02:52:02;10.60;99.90
53876;DHT22;39789;53.216;5.624;2023-11-21T02:54:27;10.60;99.90
53876;DHT22;39789;53.216;5.624;2023-11-21T02:56:53;10.60;99.90
53876;DHT22;39789;53.216;5.624;2023-11-21T02:59:18;10.60;99.90
53876;DHT22;39789;53.216;5.624;2023-11-21T03:01:45;10.60;99.90
53876;DHT22;39789;53.216;5.624;2023-11-21T03:04:11;10.60;99.90
53876;DHT22;39789;53.216;5.624;2023-11-21T03:06:41;10.50;99.90
53876;DHT22;39789;53.216;5.624;2023-11-21T03:09:06;10.60;99.90
53876;DHT22;39789;53.216;5.624;2023-11-21T03:11:32;10.60;99.90
53876;DHT22;39789;53.216;5.624;2023-11-21T03:13:58;10.50;99.90
53876;DHT22;39789;53.216;5.624;2023-11-21T03:16:23;10.60;99.90
53876;DHT22;39789;53.216;5.624;2023-11-21T03:18:49;10.60;99.90
53876;DHT22;39789;53.216;5.624;2023-11-21T03:21:17;11.60;99.90
53876;DHT22;39789;53.216;5.624;2023-11-21T03:23:43;10.70;99.90
53876;DHT22;39789;53.216;5.624;2023-11-21T03:26:12;10.70;99.90
53876;DHT22;39789;53.216;5.624;2023-11-21T03:28:38;10.70;99.90
53876;DHT22;39789;53.216;5.624;2023-11-21T03:31:04;10.70;99.90
53876;DHT22;39789;53.216;5.624;2023-11-21T03:33:32;10.70;99.90
53876;DHT22;39789;53.216;5.624;2023-11-21T03:35:57;10.80;99.90
53876;DHT22;39789;53.216;5.624;2023-11-21T03:38:24;10.70;99.90
53876;DHT22;39789;53.216;5.624;2023-11-21T03:40:49;10.70;99.90
53876;DHT22;39789;53.216;5.624;2023-11-21T03:43:16;10.60;99.90
53876;DHT22;39789;53.216;5.624;2023-11-21T03:45:41;10.60;99.90
53876;DHT22;39789;53.216;5.624;2023-11-21T03:48:07;12.10;99.90
53876;DHT22;39789;53.216;5.624;2023-11-21T03:50:34;10.50;99.90
53876;DHT22;39789;53.216;5.624;2023-11-21T03:53:00;12.20;99.90
53876;DHT22;39789;53.216;5.624;2023-11-21T03:55:26;10.50;99.90
53876;DHT22;39789;53.216;5.624;2023-11-21T03:57:52;10.50;99.90
53876;DHT22;39789;53.216;5.624;2023-11-21T04:00:18;10.40;99.90
53876;DHT22;39789;53.216;5.624;2023-11-21T04:02:46;10.40;99.90
53876;DHT22;39789;53.216;5.624;2023-11-21T04:05:11;11.70;99.90
53876;DHT22;39789;53.216;5.624;2023-11-21T04:07:37;10.40;99.90
53876;DHT22;39789;53.216;5.624;2023-11-21T04:10:05;11.00;99.90
53876;DHT22;39789;53.216;5.624;2023-11-21T04:12:33;10.30;99.90
53876;DHT22;39789;53.216;5.624;2023-11-21T04:14:59;10.20;99.90
53876;DHT22;39789;53.216;5.624;2023-11-21T04:17:24;10.30;99.90
53876;DHT22;39789;53.216;5.624;2023-11-21T04:19:50;10.20;99.90
53876;DHT22;39789;53.216;5.624;2023-11-21T04:22:15;10.20;99.90
53876;DHT22;39789;53.216;5.624;2023-11-21T04:24:41;10.20;99.90
53876;DHT22;39789;53.216;5.624;2023-11-21T04:27:07;10.20;99.90
53876;DHT22;39789;53.216;5.624;2023-11-21T04:29:33;10.20;99.90
53876;DHT22;39789;53.216;5.624;2023-11-21T04:31:58;10.20;99.90
53876;DHT22;39789;53.216;5.624;2023-11-21T04:34:24;10.20;99.90
53876;DHT22;39789;53.216;5.624;2023-11-21T04:36:50;10.20;99.90
53876;DHT22;39789;53.216;5.624;2023-11-21T04:39:16;10.20;99.90
53876;DHT22;39789;53.216;5.624;2023-11-21T04:41:41;10.20;99.90
53876;DHT22;39789;53.216;5.624;2023-11-21T04:44:08;10.20;99.90
53876;DHT22;39789;53.216;5.624;2023-11-21T04:46:33;10.20;99.90
53876;DHT22;39789;53.216;5.624;2023-11-21T04:48:59;10.20;99.90
53876;DHT22;39789;53.216;5.624;2023-11-21T04:51:25;10.20;99.90
53876;DHT22;39789;53.216;5.624;2023-11-21T04:53:50;10.20;99.90
53876;DHT22;39789;53.216;5.624;2023-11-21T04:56:16;10.20;99.90
53876;DHT22;39789;53.216;5.624;2023-11-21T04:58:41;11.20;99.90
53876;DHT22;39789;53.216;5.624;2023-11-21T05:01:07;10.30;99.90
53876;DHT22;39789;53.216;5.624;2023-11-21T05:03:33;10.20;99.90
53876;DHT22;39789;53.216;5.624;2023-11-21T05:05:59;10.20;99.90
53876;DHT22;39789;53.216;5.624;2023-11-21T05:08:25;10.20;99.90
53876;DHT22;39789;53.216;5.624;2023-11-21T05:10:52;10.20;99.90
53876;DHT22;39789;53.216;5.624;2023-11-21T05:13:17;10.00;99.90
53876;DHT22;39789;53.216;5.624;2023-11-21T05:15:44;10.00;99.90
53876;DHT22;39789;53.216;5.624;2023-11-21T05:18:10;10.00;99.90
53876;DHT22;39789;53.216;5.624;2023-11-21T05:20:36;10.00;99.90
53876;DHT22;39789;53.216;5.624;2023-11-21T05:23:02;9.90;99.90
53876;DHT22;39789;53.216;5.624;2023-11-21T05:25:28;9.80;99.90
53876;DHT22;39789;53.216;5.624;2023-11-21T05:27:53;9.70;99.90
53876;DHT22;39789;53.216;5.624;2023-11-21T05:30:21;9.70;99.90
53876;DHT22;39789;53.216;5.624;2023-11-21T05:32:46;9.70;99.90
53876;DHT22;39789;53.216;5.624;2023-11-21T05:35:12;9.70;99.90
53876;DHT22;39789;53.216;5.624;2023-11-21T05:37:41;9.60;99.90
53876;DHT22;39789;53.216;5.624;2023-11-21T05:40:08;9.60;99.90
53876;DHT22;39789;53.216;5.624;2023-11-21T05:42:37;9.60;99.90
53876;DHT22;39789;53.216;5.624;2023-11-21T05:45:04;9.60;99.90
53876;DHT22;39789;53.216;5.624;2023-11-21T05:47:46;9.50;99.90
53876;DHT22;39789;53.216;5.624;2023-11-21T05:50:14;9.50;99.90
53876;DHT22;39789;53.216;5.624;2023-11-21T05:52:41;9.50;99.90
53876;DHT22;39789;53.216;5.624;2023-11-21T05:55:07;9.50;99.90
53876;DHT22;39789;53.216;5.624;2023-11-21T05:57:34;9.50;99.90
53876;DHT22;39789;53.216;5.624;2023-11-21T06:00:03;9.50;99.90
53876;DHT22;39789;53.216;5.624;2023-11-21T06:02:35;9.50;99.90
53876;DHT22;39789;53.216;5.624;2023-11-21T06:05:00;9.50;99.90
53876;DHT22;39789;53.216;5.624;2023-11-21T06:07:26;9.50;99.90
53876;DHT22;39789;53.216;5.624;2023-11-21T06:09:52;9.40;99.90
53876;DHT22;39789;53.216;5.624;2023-11-21T06:12:17;9.50;99.90
53876;DHT22;39789;53.216;5.624;2023-11-21T06:14:43;9.50;99.90
53876;DHT22;39789;53.216;5.624;2023-11-21T06:17:08;9.50;99.90
53876;DHT22;39789;53.216;5.624;2023-11-21T06:19:35;9.40;99.90
53876;DHT22;39789;53.216;5.624;2023-11-21T06:22:00;9.50;99.90
53876;DHT22;39789;53.216;5.624;2023-11-21T06:24:27;9.40;99.90
53876;DHT22;39789;53.216;5.624;2023-11-21T06:26:53;9.40;99.90
53876;DHT22;39789;53.216;5.624;2023-11-21T06:29:19;9.40;99.90
53876;DHT22;39789;53.216;5.624;2023-11-21T06:31:45;9.50;99.90
53876;DHT22;39789;53.216;5.624;2023-11-21T06:34:11;9.40;99.90
53876;DHT22;39789;53.216;5.624;2023-11-21T06:36:37;9.40;99.90
53876;DHT22;39789;53.216;5.624;2023-11-21T06:39:03;9.40;99.90
53876;DHT22;39789;53.216;5.624;2023-11-21T06:41:34;9.40;99.90
53876;DHT22;39789;53.216;5.624;2023-11-21T06:44:00;9.40;99.90
53876;DHT22;39789;53.216;5.624;2023-11-21T06:46:25;9.40;99.90
53876;DHT22;39789;53.216;5.624;2023-11-21T06:48:51;9.40;99.90
53876;DHT22;39789;53.216;5.624;2023-11-21T06:51:16;10.90;99.90
53876;DHT22;39789;53.216;5.624;2023-11-21T06:53:43;9.40;99.90
53876;DHT22;39789;53.216;5.624;2023-11-21T06:56:18;10.00;99.90
53876;DHT22;39789;53.216;5.624;2023-11-21T06:58:45;9.40;99.90
53876;DHT22;39789;53.216;5.624;2023-11-21T07:01:11;9.40;99.90
53876;DHT22;39789;53.216;5.624;2023-11-21T07:03:37;11.00;99.90
53876;DHT22;39789;53.216;5.624;2023-11-21T07:06:03;9.30;99.90
53876;DHT22;39789;53.216;5.624;2023-11-21T07:08:29;9.40;99.90
53876;DHT22;39789;53.216;5.624;2023-11-21T07:10:55;9.40;99.90
53876;DHT22;39789;53.216;5.624;2023-11-21T07:13:20;9.20;99.90
53876;DHT22;39789;53.216;5.624;2023-11-21T07:15:47;9.40;99.90
53876;DHT22;39789;53.216;5.624;2023-11-21T07:18:13;9.40;99.90
53876;DHT22;39789;53.216;5.624;2023-11-21T07:20:39;9.40;99.90
53876;DHT22;39789;53.216;5.624;2023-11-21T07:23:05;9.30;99.90
53876;DHT22;39789;53.216;5.624;2023-11-21T07:25:31;9.30;99.90
53876;DHT22;39789;53.216;5.624;2023-11-21T07:27:59;9.30;99.90
53876;DHT22;39789;53.216;5.624;2023-11-21T07:30:24;9.30;99.90
53876;DHT22;39789;53.216;5.624;2023-11-21T07:32:50;9.30;99.90
53876;DHT22;39789;53.216;5.624;2023-11-21T07:35:16;9.30;99.90
53876;DHT22;39789;53.216;5.624;2023-11-21T07:37:41;9.20;99.90
53876;DHT22;39789;53.216;5.624;2023-11-21T07:40:08;9.30;99.90
53876;DHT22;39789;53.216;5.624;2023-11-21T07:42:34;9.30;99.90
53876;DHT22;39789;53.216;5.624;2023-11-21T07:45:00;9.30;99.90
53876;DHT22;39789;53.216;5.624;2023-11-21T07:47:26;9.30;99.90
53876;DHT22;39789;53.216;5.624;2023-11-21T07:49:53;9.20;99.90
53876;DHT22;39789;53.216;5.624;2023-11-21T07:52:19;9.20;99.90
53876;DHT22;39789;53.216;5.624;2023-11-21T07:54:46;9.20;99.90
53876;DHT22;39789;53.216;5.624;2023-11-21T07:57:12;9.20;99.90
53876;DHT22;39789;53.216;5.624;2023-11-21T07:59:39;9.20;99.90
53876;DHT22;39789;53.216;5.624;2023-11-21T08:02:06;9.20;99.90
53876;DHT22;39789;53.216;5.624;2023-11-21T08:04:32;9.20;99.90
53876;DHT22;39789;53.216;5.624;2023-11-21T08:06:58;9.20;99.90
53876;DHT22;39789;53.216;5.624;2023-11-21T08:09:23;9.20;99.90
53876;DHT22;39789;53.216;5.624;2023-11-21T08:11:49;9.20;99.90
53876;DHT22;39789;53.216;5.624;2023-11-21T08:14:16;9.20;99.90
53876;DHT22;39789;53.216;5.624;2023-11-21T08:16:42;9.20;99.90
53876;DHT22;39789;53.216;5.624;2023-11-21T08:19:08;9.20;99.90
53876;DHT22;39789;53.216;5.624;2023-11-21T08:21:35;9.30;99.90
53876;DHT22;39789;53.216;5.624;2023-11-21T08:24:02;9.30;99.90
53876;DHT22;39789;53.216;5.624;2023-11-21T08:26:29;9.30;99.90
53876;DHT22;39789;53.216;5.624;2023-11-21T08:28:55;9.20;99.90
53876;DHT22;39789;53.216;5.624;2023-11-21T08:31:28;9.30;99.90
53876;DHT22;39789;53.216;5.624;2023-11-21T08:33:54;9.30;99.90
53876;DHT22;39789;53.216;5.624;2023-11-21T08:36:22;9.40;99.90
53876;DHT22;39789;53.216;5.624;2023-11-21T08:38:49;9.40;99.90
53876;DHT22;39789;53.216;5.624;2023-11-21T08:41:17;9.40;99.90
53876;DHT22;39789;53.216;5.624;2023-11-21T08:43:52;9.40;99.90
53876;DHT22;39789;53.216;5.624;2023-11-21T08:46:19;9.50;99.90
53876;DHT22;39789;53.216;5.624;2023-11-21T08:48:44;9.50;99.90
53876;DHT22;39789;53.216;5.624;2023-11-21T08:51:10;9.40;99.90
53876;DHT22;39789;53.216;5.624;2023-11-21T08:53:37;9.50;99.90
53876;DHT22;39789;53.216;5.624;2023-11-21T08:56:03;9.40;99.90
53876;DHT22;39789;53.216;5.624;2023-11-21T08:58:30;9.40;99.90
53876;DHT22;39789;53.216;5.624;2023-11-21T09:00:57;10.70;99.90
53876;DHT22;39789;53.216;5.624;2023-11-21T09:03:23;10.80;99.90
53876;DHT22;39789;53.216;5.624;2023-11-21T09:05:48;9.40;99.90
53876;DHT22;39789;53.216;5.624;2023-11-21T09:08:14;9.50;99.90
53876;DHT22;39789;53.216;5.624;2023-11-21T09:10:40;9.50;99.90
53876;DHT22;39789;53.216;5.624;2023-11-21T09:13:07;9.50;99.90
53876;DHT22;39789;53.216;5.624;2023-11-21T09:15:34;11.20;99.90
53876;DHT22;39789;53.216;5.624;2023-11-21T09:18:00;9.50;99.90
53876;DHT22;39789;53.216;5.624;2023-11-21T09:20:27;9.60;99.90
53876;DHT22;39789;53.216;5.624;2023-11-21T09:22:52;9.60;99.90
53876;DHT22;39789;53.216;5.624;2023-11-21T09:25:19;9.50;99.90
53876;DHT22;39789;53.216;5.624;2023-11-21T09:27:46;9.50;99.90
53876;DHT22;39789;53.216;5.624;2023-11-21T09:30:12;9.50;99.90
53876;DHT22;39789;53.216;5.624;2023-11-21T09:32:39;9.50;99.90
53876;DHT22;39789;53.216;5.624;2023-11-21T09:35:06;9.50;99.90
53876;DHT22;39789;53.216;5.624;2023-11-21T09:37:33;9.60;99.90
53876;DHT22;39789;53.216;5.624;2023-11-21T09:39:59;9.50;99.90
53876;DHT22;39789;53.216;5.624;2023-11-21T09:42:37;9.50;99.90
53876;DHT22;39789;53.216;5.624;2023-11-21T09:47:39;9.50;99.90
53876;DHT22;39789;53.216;5.624;2023-11-21T09:50:06;9.60;99.90
53876;DHT22;39789;53.216;5.624;2023-11-21T09:52:49;9.60;99.90
53876;DHT22;39789;53.216;5.624;2023-11-21T09:55:18;9.60;99.90
53876;DHT22;39789;53.216;5.624;2023-11-21T09:57:47;9.70;99.90
53876;DHT22;39789;53.216;5.624;2023-11-21T10:00:14;9.70;99.90
53876;DHT22;39789;53.216;5.624;2023-11-21T10:02:43;9.70;99.90
53876;DHT22;39789;53.216;5.624;2023-11-21T10:05:09;9.70;99.90
53876;DHT22;39789;53.216;5.624;2023-11-21T10:07:35;9.70;99.90
53876;DHT22;39789;53.216;5.624;2023-11-21T10:10:01;9.60;99.90
53876;DHT22;39789;53.216;5.624;2023-11-21T10:12:28;9.60;99.90
53876;DHT22;39789;53.216;5.624;2023-11-21T10:14:54;10.90;99.90
53876;DHT22;39789;53.216;5.624;2023-11-21T10:17:24;9.60;99.90
53876;DHT22;39789;53.216;5.624;2023-11-21T10:19:55;9.50;99.90
53876;DHT22;39789;53.216;5.624;2023-11-21T10:22:23;9.50;99.90
53876;DHT22;39789;53.216;5.624;2023-11-21T10:24:49;9.40;99.90
53876;DHT22;39789;53.216;5.624;2023-11-21T10:27:14;9.40;99.90
53876;DHT22;39789;53.216;5.624;2023-11-21T10:29:40;9.30;99.90
53876;DHT22;39789;53.216;5.624;2023-11-21T10:32:07;9.30;99.90
53876;DHT22;39789;53.216;5.624;2023-11-21T10:34:34;9.30;99.90
53876;DHT22;39789;53.216;5.624;2023-11-21T10:37:11;9.30;99.90
53876;DHT22;39789;53.216;5.624;2023-11-21T10:39:37;9.20;99.90
53876;DHT22;39789;53.216;5.624;2023-11-21T10:42:04;9.20;99.90
53876;DHT22;39789;53.216;5.624;2023-11-21T10:44:30;9.20;99.90
53876;DHT22;39789;53.216;5.624;2023-11-21T10:46:55;9.10;99.90
53876;DHT22;39789;53.216;5.624;2023-11-21T10:49:25;9.10;99.90
53876;DHT22;39789;53.216;5.624;2023-11-21T10:51:55;9.00;99.90
53876;DHT22;39789;53.216;5.624;2023-11-21T10:54:22;9.00;99.90
53876;DHT22;39789;53.216;5.624;2023-11-21T10:56:50;9.00;99.90
53876;DHT22;39789;53.216;5.624;2023-11-21T10:59:19;9.00;99.90
53876;DHT22;39789;53.216;5.624;2023-11-21T11:01:51;9.00;99.90
53876;DHT22;39789;53.216;5.624;2023-11-21T11:04:19;9.10;99.90
53876;DHT22;39789;53.216;5.624;2023-11-21T11:06:51;9.20;99.90
53876;DHT22;39789;53.216;5.624;2023-11-21T11:09:19;9.20;99.90
53876;DHT22;39789;53.216;5.624;2023-11-21T11:11:46;9.20;99.90
53876;DHT22;39789;53.216;5.624;2023-11-21T11:14:13;9.20;99.90
53876;DHT22;39789;53.216;5.624;2023-11-21T11:16:39;9.20;99.90
53876;DHT22;39789;53.216;5.624;2023-11-21T11:19:11;9.20;99.90
53876;DHT22;39789;53.216;5.624;2023-11-21T11:22:10;9.20;99.90
53876;DHT22;39789;53.216;5.624;2023-11-21T11:28:04;9.20;99.90
53876;DHT22;39789;53.216;5.624;2023-11-21T11:33:51;9.10;99.90
53876;DHT22;39789;53.216;5.624;2023-11-21T11:36:35;9.00;99.90
53876;DHT22;39789;53.216;5.624;2023-11-21T11:39:03;9.00;99.90
53876;DHT22;39789;53.216;5.624;2023-11-21T11:41:31;9.00;99.90
53876;DHT22;39789;53.216;5.624;2023-11-21T11:44:02;9.00;99.90
53876;DHT22;39789;53.216;5.624;2023-11-21T11:46:45;8.90;99.90
53876;DHT22;39789;53.216;5.624;2023-11-21T11:49:29;8.90;99.90
53876;DHT22;39789;53.216;5.624;2023-11-21T11:54:59;9.00;99.90
53876;DHT22;39789;53.216;5.624;2023-11-21T11:57:25;9.00;99.90
53876;DHT22;39789;53.216;5.624;2023-11-21T12:00:19;9.00;99.90
53876;DHT22;39789;53.216;5.624;2023-11-21T12:02:58;9.10;99.90
53876;DHT22;39789;53.216;5.624;2023-11-21T12:05:26;9.10;99.90
53876;DHT22;39789;53.216;5.624;2023-11-21T12:07:57;9.10;99.90
53876;DHT22;39789;53.216;5.624;2023-11-21T12:10:33;9.20;99.90
53876;DHT22;39789;53.216;5.624;2023-11-21T12:13:05;9.20;99.90
53876;DHT22;39789;53.216;5.624;2023-11-21T12:15:36;9.20;99.90
53876;DHT22;39789;53.216;5.624;2023-11-21T12:18:02;9.30;99.90
53876;DHT22;39789;53.216;5.624;2023-11-21T12:20:30;9.30;99.90
53876;DHT22;39789;53.216;5.624;2023-11-21T12:23:00;9.40;99.90
53876;DHT22;39789;53.216;5.624;2023-11-21T12:25:28;9.30;99.90
53876;DHT22;39789;53.216;5.624;2023-11-21T12:27:55;10.50;99.90
53876;DHT22;39789;53.216;5.624;2023-11-21T12:30:26;10.90;99.90
53876;DHT22;39789;53.216;5.624;2023-11-21T12:32:55;9.60;99.90
53876;DHT22;39789;53.216;5.624;2023-11-21T12:35:30;9.60;99.90
53876;DHT22;39789;53.216;5.624;2023-11-21T12:37:59;9.60;99.90
53876;DHT22;39789;53.216;5.624;2023-11-21T12:40:28;9.60;99.90
53876;DHT22;39789;53.216;5.624;2023-11-21T12:42:59;9.60;99.90
53876;DHT22;39789;53.216;5.624;2023-11-21T12:45:28;9.50;99.90
53876;DHT22;39789;53.216;5.624;2023-11-21T12:48:00;9.50;99.90
53876;DHT22;39789;53.216;5.624;2023-11-21T12:50:29;9.40;99.90
53876;DHT22;39789;53.216;5.624;2023-11-21T12:55:34;9.20;99.90
53876;DHT22;39789;53.216;5.624;2023-11-21T12:58:03;9.20;99.90
53876;DHT22;39789;53.216;5.624;2023-11-21T13:03:09;9.30;99.90
53876;DHT22;39789;53.216;5.624;2023-11-21T13:05:38;9.40;99.90
53876;DHT22;39789;53.216;5.624;2023-11-21T13:08:06;9.50;99.90
53876;DHT22;39789;53.216;5.624;2023-11-21T13:10:34;9.50;99.90
53876;DHT22;39789;53.216;5.624;2023-11-21T13:13:04;11.00;99.90
53876;DHT22;39789;53.216;5.624;2023-11-21T13:15:39;9.30;99.90
53876;DHT22;39789;53.216;5.624;2023-11-21T13:18:06;9.30;99.90
53876;DHT22;39789;53.216;5.624;2023-11-21T13:20:32;9.30;99.90
53876;DHT22;39789;53.216;5.624;2023-11-21T13:22:58;9.20;99.90
53876;DHT22;39789;53.216;5.624;2023-11-21T13:25:28;9.20;99.90
53876;DHT22;39789;53.216;5.624;2023-11-21T13:27:58;9.20;99.90
53876;DHT22;39789;53.216;5.624;2023-11-21T13:30:27;9.20;99.90
53876;DHT22;39789;53.216;5.624;2023-11-21T13:32:59;9.20;99.90
53876;DHT22;39789;53.216;5.624;2023-11-21T13:35:31;9.20;99.90
53876;DHT22;39789;53.216;5.624;2023-11-21T13:38:14;9.20;99.90
53876;DHT22;39789;53.216;5.624;2023-11-21T13:40:47;9.20;99.90
53876;DHT22;39789;53.216;5.624;2023-11-21T13:43:18;9.20;99.90
53876;DHT22;39789;53.216;5.624;2023-11-21T13:45:46;9.20;99.90
53876;DHT22;39789;53.216;5.624;2023-11-21T13:48:13;9.20;99.90
53876;DHT22;39789;53.216;5.624;2023-11-21T13:50:50;9.10;99.90
53876;DHT22;39789;53.216;5.624;2023-11-21T13:53:33;9.10;99.90
53876;DHT22;39789;53.216;5.624;2023-11-21T13:56:01;8.90;99.90
53876;DHT22;39789;53.216;5.624;2023-11-21T13:58:27;8.80;99.90
53876;DHT22;39789;53.216;5.624;2023-11-21T14:01:12;8.60;99.90
53876;DHT22;39789;53.216;5.624;2023-11-21T14:03:56;8.60;99.90
53876;DHT22;39789;53.216;5.624;2023-11-21T14:06:28;8.60;99.90
53876;DHT22;39789;53.216;5.624;2023-11-21T14:09:00;8.50;99.90
53876;DHT22;39789;53.216;5.624;2023-11-21T14:11:30;8.60;99.90
53876;DHT22;39789;53.216;5.624;2023-11-21T14:13:56;8.60;99.90
53876;DHT22;39789;53.216;5.624;2023-11-21T14:16:24;8.30;99.90
53876;DHT22;39789;53.216;5.624;2023-11-21T14:18:50;8.50;99.90
53876;DHT22;39789;53.216;5.624;2023-11-21T14:21:22;8.50;99.90
53876;DHT22;39789;53.216;5.624;2023-11-21T14:23:48;8.50;99.90
53876;DHT22;39789;53.216;5.624;2023-11-21T14:26:14;8.30;99.90
53876;DHT22;39789;53.216;5.624;2023-11-21T14:28:41;8.40;99.90
53876;DHT22;39789;53.216;5.624;2023-11-21T14:31:07;10.20;99.90
53876;DHT22;39789;53.216;5.624;2023-11-21T14:33:38;8.40;99.90
53876;DHT22;39789;53.216;5.624;2023-11-21T14:36:04;8.40;99.90
53876;DHT22;39789;53.216;5.624;2023-11-21T14:38:30;8.40;99.90
53876;DHT22;39789;53.216;5.624;2023-11-21T14:40:56;8.90;99.90
53876;DHT22;39789;53.216;5.624;2023-11-21T14:43:22;8.30;99.90
53876;DHT22;39789;53.216;5.624;2023-11-21T14:45:48;8.20;99.90
53876;DHT22;39789;53.216;5.624;2023-11-21T14:48:14;8.10;99.90
53876;DHT22;39789;53.216;5.624;2023-11-21T14:50:54;7.90;99.90
53876;DHT22;39789;53.216;5.624;2023-11-21T14:53:28;7.90;99.90
53876;DHT22;39789;53.216;5.624;2023-11-21T14:56:19;7.90;99.90
53876;DHT22;39789;53.216;5.624;2023-11-21T14:58:52;7.80;99.90
53876;DHT22;39789;53.216;5.624;2023-11-21T15:01:19;7.80;99.90
53876;DHT22;39789;53.216;5.624;2023-11-21T15:03:56;7.80;99.90
53876;DHT22;39789;53.216;5.624;2023-11-21T15:06:21;7.80;99.90
53876;DHT22;39789;53.216;5.624;2023-11-21T15:08:56;7.70;99.90
53876;DHT22;39789;53.216;5.624;2023-11-21T15:11:42;7.70;99.90
53876;DHT22;39789;53.216;5.624;2023-11-21T15:14:08;7.60;99.90
53876;DHT22;39789;53.216;5.624;2023-11-21T15:16:38;7.70;99.90
53876;DHT22;39789;53.216;5.624;2023-11-21T15:19:11;7.50;99.90
53876;DHT22;39789;53.216;5.624;2023-11-21T15:21:44;7.50;99.90
53876;DHT22;39789;53.216;5.624;2023-11-21T15:24:11;7.50;99.90
53876;DHT22;39789;53.216;5.624;2023-11-21T15:26:37;7.40;99.90
53876;DHT22;39789;53.216;5.624;2023-11-21T15:29:02;7.40;99.90
53876;DHT22;39789;53.216;5.624;2023-11-21T15:31:28;7.40;99.90
53876;DHT22;39789;53.216;5.624;2023-11-21T15:33:54;7.30;99.90
53876;DHT22;39789;53.216;5.624;2023-11-21T15:36:24;7.30;99.90
53876;DHT22;39789;53.216;5.624;2023-11-21T15:38:49;7.20;99.90
53876;DHT22;39789;53.216;5.624;2023-11-21T15:41:15;7.20;99.90
53876;DHT22;39789;53.216;5.624;2023-11-21T15:43:41;7.10;99.90
53876;DHT22;39789;53.216;5.624;2023-11-21T15:46:06;7.00;99.90
53876;DHT22;39789;53.216;5.624;2023-11-21T15:48:34;6.90;99.90
53876;DHT22;39789;53.216;5.624;2023-11-21T15:51:00;6.80;99.90
53876;DHT22;39789;53.216;5.624;2023-11-21T15:53:28;6.80;99.90
53876;DHT22;39789;53.216;5.624;2023-11-21T15:55:53;6.70;99.90
53876;DHT22;39789;53.216;5.624;2023-11-21T15:58:19;6.70;99.90
53876;DHT22;39789;53.216;5.624;2023-11-21T16:00:45;6.80;99.90